KACQ

Waseca Municipal Airport

Waseca, Minnesota, USA
METAR KACQ 260315Z AUTO 00000KT 10SM CLR 06/01 A3002 RMK AO2
Observed Flight Rules
Apr-26 @ 03:15 UTC (15 minutes ago) Visual Flight Rules
Visibility Clouds
10 miles
  • Clear skies
Temperatures Readings
Current 6°C / 43°F
Dewpoint 1°C / 34°F
Humidity 71%
Altimeter 30.02" Hg
Pressure 1017 hPa
Elevation 343
METAR KACQ 260315Z AUTO 00000KT 10SM CLR 06/01 A3002 RMK AO2
Observed Flight Rules
Apr-26 @ 03:15 UTC
(15 minutes ago)
VFR
Clouds
  • Clear skies
Temperature Dewpoint
6°C / 43°F 1°C / 34°F
Humidity Altimeter Pressure
71% 30.02" Hg 1017 hPa